Time;durP1;ratioP1;P1;durP2;ratioP2;P2;SDS_P1;SDS_P2;PMS_P1;PMS_P2;Temp;Humidity;BMP_temperature;BMP_pressure;BME280_temperature;BME280_humidity;BME280_pressure;Samples;Min_cycle;Max_cycle;Signal;HPM_P1;HPM_P2
2022/11/19 00:01:06;;;;;;;12.10;5.35;;;;;;;5.80;100.00;100436.41;5036021;28;20060;-72
2022/11/19 00:03:34;;;;;;;14.20;6.57;;;;;;;5.76;100.00;100432.81;5036210;28;20049;-73
2022/11/19 00:06:04;;;;;;;14.80;6.22;;;;;;;5.73;100.00;100433.56;5036168;28;20422;-72
2022/11/19 00:08:30;;;;;;;14.95;7.10;;;;;;;5.72;100.00;100438.28;5038310;28;20053;-72
2022/11/19 00:11:11;;;;;;;12.70;5.63;;;;;;;5.67;100.00;100433.09;5036784;28;20060;-72
2022/11/19 00:13:40;;;;;;;11.95;4.95;;;;;;;5.65;100.00;100446.41;5038918;28;20072;-74
2022/11/19 00:16:10;;;;;;;14.75;6.82;;;;;;;5.67;100.00;100430.34;5041178;28;20856;-73
2022/11/19 00:18:37;;;;;;;18.35;7.85;;;;;;;5.63;100.00;100432.25;5035792;28;20055;-73
2022/11/19 00:21:09;;;;;;;16.02;7.03;;;;;;;5.53;100.00;100430.16;5037143;28;20056;-72
2022/11/19 00:23:36;;;;;;;14.38;6.43;;;;;;;5.53;100.00;100427.41;5035219;28;20915;-73
2022/11/19 00:26:05;;;;;;;17.27;6.90;;;;;;;5.50;100.00;100443.81;5036801;28;20061;-73
2022/11/19 00:28:32;;;;;;;17.08;6.55;;;;;;;5.51;100.00;100450.88;5034449;28;20433;-73
2022/11/19 00:31:09;;;;;;;17.00;7.63;;;;;;;5.45;100.00;100444.94;5036252;28;20509;-73
2022/11/19 00:33:37;;;;;;;15.32;6.47;;;;;;;5.49;100.00;100462.22;5037156;28;20052;-74
2022/11/19 00:36:06;;;;;;;14.93;5.85;;;;;;;5.54;100.00;100458.38;5038490;28;20049;-73
2022/11/19 00:38:33;;;;;;;16.58;6.80;;;;;;;5.49;100.00;100459.50;5037859;28;20589;-73
2022/11/19 00:41:00;;;;;;;16.73;6.75;;;;;;;5.48;100.00;100460.66;5067563;28;20049;-75
2022/11/19 00:46:21;;;;;;;15.63;7.13;;;;;;;5.35;100.00;100462.81;5037894;28;20061;-72
2022/11/19 00:48:49;;;;;;;16.85;6.78;;;;;;;5.38;100.00;100458.53;5037992;28;20057;-72
2022/11/19 00:51:17;;;;;;;17.60;7.65;;;;;;;5.37;100.00;100456.97;5037590;28;20099;-73
2022/11/19 00:53:44;;;;;;;16.42;6.43;;;;;;;5.32;100.00;100460.81;5038770;28;20048;-73
2022/11/19 00:56:13;;;;;;;15.77;6.63;;;;;;;5.32;100.00;100457.28;5039212;28;20393;-73
2022/11/19 00:58:40;;;;;;;19.63;7.65;;;;;;;5.32;100.00;100455.31;5037664;28;20099;-73
2022/11/19 01:01:08;;;;;;;21.35;9.40;;;;;;;5.26;100.00;100461.47;5035977;28;20060;-75
2022/11/19 01:03:36;;;;;;;21.17;9.55;;;;;;;5.20;100.00;100463.75;5032814;28;20059;-73
2022/11/19 01:06:04;;;;;;;20.17;10.10;;;;;;;5.19;100.00;100472.34;5041930;28;20048;-73
2022/11/19 01:08:30;;;;;;;20.35;10.43;;;;;;;5.13;100.00;100480.06;5029266;28;20059;-73
2022/11/19 01:11:11;;;;;;;14.68;6.75;;;;;;;5.09;100.00;100481.97;5036550;28;20581;-72
2022/11/19 01:13:38;;;;;;;18.77;8.45;;;;;;;5.06;100.00;100482.69;5035170;28;20465;-73
2022/11/19 01:16:13;;;;;;;19.42;9.15;;;;;;;5.05;100.00;100499.53;5039706;28;20069;-72
2022/11/19 01:18:40;;;;;;;;;;;;;;;5.03;100.00;100491.66;5037474;28;20045;-72
2022/11/19 01:21:09;;;;;;;20.25;9.30;;;;;;;5.00;100.00;100495.13;5038509;28;19932;-73
2022/11/19 01:23:40;;;;;;;17.05;6.78;;;;;;;4.98;100.00;100489.22;5041188;28;20048;-73
2022/11/19 01:26:08;;;;;;;21.95;9.48;;;;;;;4.98;100.00;100502.94;5033855;28;20049;-72
2022/11/19 01:28:35;;;;;;;20.23;9.18;;;;;;;4.92;100.00;100500.84;5027560;28;20056;-72
2022/11/19 01:31:20;;;;;;;26.38;13.07;;;;;;;4.93;100.00;100505.19;5035803;28;20540;-73
2022/11/19 01:33:47;;;;;;;23.00;9.88;;;;;;;4.83;100.00;100492.88;5046031;28;20048;-72
2022/11/19 01:36:26;;;;;;;26.45;12.32;;;;;;;4.87;100.00;100503.91;5040088;28;20057;-74
2022/11/19 01:38:54;;;;;;;20.95;9.48;;;;;;;4.84;100.00;100510.13;5040807;28;20064;-74
2022/11/19 01:41:31;;;;;;;26.00;12.32;;;;;;;4.80;100.00;100510.03;5036478;28;20056;-72
2022/11/19 01:43:59;;;;;;;27.27;12.43;;;;;;;4.84;100.00;100508.16;5037504;28;20049;-73
2022/11/19 01:46:31;;;;;;;21.08;9.55;;;;;;;4.78;100.00;100517.03;5035308;28;20064;-72
2022/11/19 01:49:15;;;;;;;20.40;8.57;;;;;;;4.79;100.00;100513.13;5031371;28;20056;-73
2022/11/19 01:51:57;;;;;;;26.27;12.77;;;;;;;4.80;100.00;100518.25;5025706;28;20496;-71
2022/11/19 01:54:33;;;;;;;25.25;11.23;;;;;;;4.74;100.00;100517.00;5034964;28;20741;-73
2022/11/19 01:57:05;;;;;;;24.88;12.52;;;;;;;4.77;100.00;100527.22;5036019;28;20057;-72
2022/11/19 01:59:31;;;;;;;30.15;14.45;;;;;;;4.81;100.00;100530.03;5038227;28;20060;-71
2022/11/19 02:01:58;;;;;;;28.02;14.10;;;;;;;4.74;100.00;100522.47;5035774;28;20075;-73
2022/11/19 02:04:26;;;;;;;35.70;16.10;;;;;;;4.70;100.00;100524.31;5035849;28;20044;-72
2022/11/19 02:06:53;;;;;;;28.15;12.50;;;;;;;4.71;100.00;100522.38;5036526;28;20049;-72
2022/11/19 02:09:20;;;;;;;30.17;15.63;;;;;;;4.69;100.00;100519.22;5035521;28;20160;-73
2022/11/19 02:12:22;;;;;;;31.65;15.60;;;;;;;4.68;100.00;100529.41;5035308;28;20040;-72
2022/11/19 02:15:34;;;;;;;32.00;15.20;;;;;;;4.67;100.00;100536.03;5036584;28;20276;-73
2022/11/19 02:18:28;;;;;;;26.02;12.05;;;;;;;4.66;100.00;100539.91;5024997;28;20052;-73
2022/11/19 02:21:16;;;;;;;26.02;12.10;;;;;;;4.57;100.00;100539.34;5029662;28;20052;-74
2022/11/19 02:23:56;;;;;;;32.63;16.63;;;;;;;4.64;100.00;100544.19;5023035;28;20044;-72
2022/11/19 02:26:54;;;;;;;27.45;12.40;;;;;;;4.58;100.00;100548.34;5036267;28;20049;-72
2022/11/19 02:29:32;;;;;;;33.80;17.02;;;;;;;4.59;100.00;100537.03;5018360;28;20045;-72
2022/11/19 02:32:13;;;;;;;32.83;16.95;;;;;;;4.58;100.00;100543.69;5037150;28;20045;-73
2022/11/19 02:34:50;;;;;;;32.03;17.08;;;;;;;4.62;100.00;100551.94;5031211;28;20057;-74
2022/11/19 02:37:29;;;;;;;31.67;15.98;;;;;;;4.61;100.00;100547.63;5037573;28;20049;-75
2022/11/19 02:40:03;;;;;;;32.45;17.20;;;;;;;4.52;100.00;100536.91;5034041;28;20824;-73
2022/11/19 02:42:35;;;;;;;35.83;16.45;;;;;;;4.56;100.00;100539.72;5032732;28;20327;-75
2022/11/19 02:45:09;;;;;;;32.05;16.10;;;;;;;4.57;100.00;100539.34;5034717;28;20870;-74
2022/11/19 02:47:58;;;;;;;35.00;15.52;;;;;;;4.56;100.00;100545.97;5037457;28;20568;-75
2022/11/19 02:50:35;;;;;;;31.75;15.18;;;;;;;4.54;100.00;100553.78;5040267;28;20087;-73
2022/11/19 02:53:03;;;;;;;34.10;16.27;;;;;;;4.50;100.00;100550.19;5034359;28;20049;-75
2022/11/19 02:55:30;;;;;;;33.67;17.55;;;;;;;4.47;100.00;100553.63;5035898;28;20063;-75
2022/11/19 02:58:08;;;;;;;35.08;17.80;;;;;;;4.37;100.00;100542.44;5033155;28;20095;-72
2022/11/19 03:06:27;;;;;;;34.30;18.52;;;;;;;4.35;100.00;100558.44;5048290;28;20064;-71
2022/11/19 03:08:54;;;;;;;33.50;18.02;;;;;;;4.37;100.00;100550.66;5048659;28;20053;-72
2022/11/19 03:11:24;;;;;;;39.42;19.73;;;;;;;4.38;100.00;100546.75;5047943;28;20412;-74
2022/11/19 03:16:57;;;;;;;39.28;20.92;;;;;;;4.33;100.00;100544.31;5048363;28;20214;-73
2022/11/19 03:19:43;;;;;;;37.05;17.73;;;;;;;4.27;100.00;100554.78;5048142;28;20056;-74
2022/11/19 03:22:31;;;;;;;36.90;18.55;;;;;;;4.24;100.00;100551.94;5048572;28;20048;-72
2022/11/19 03:25:04;;;;;;;38.67;20.27;;;;;;;4.22;100.00;100549.56;5028096;28;20693;-72
2022/11/19 03:27:44;;;;;;;39.80;20.50;;;;;;;4.27;100.00;100556.72;5039733;28;20045;-72
2022/11/19 03:30:12;;;;;;;38.85;19.42;;;;;;;4.24;100.00;100552.75;5047274;28;20049;-73
2022/11/19 03:32:47;;;;;;;38.50;20.10;;;;;;;4.18;100.00;100548.69;5048455;28;20059;-73
2022/11/19 03:35:18;;;;;;;37.40;19.00;;;;;;;4.12;100.00;100552.88;5047948;28;20053;-73
2022/11/19 03:37:49;;;;;;;35.00;18.08;;;;;;;4.10;100.00;100548.91;5050922;28;20668;-73
2022/11/19 03:40:18;;;;;;;33.28;16.67;;;;;;;4.12;100.00;100550.13;5051263;28;20048;-73
2022/11/19 03:42:49;;;;;;;40.75;20.77;;;;;;;4.10;100.00;100552.44;5052226;28;20041;-73
2022/11/19 03:45:21;;;;;;;30.77;13.57;;;;;;;4.09;100.00;100555.53;5058828;28;20056;-72
2022/11/19 03:47:49;;;;;;;39.25;17.88;;;;;;;4.07;100.00;100563.31;5051457;28;20055;-75
2022/11/19 03:50:32;;;;;;;44.60;22.58;;;;;;;4.09;100.00;100566.50;5051302;28;20056;-74
2022/11/19 03:52:58;;;;;;;40.80;20.25;;;;;;;4.05;100.00;100565.63;5048155;28;20052;-72
2022/11/19 03:55:38;;;;;;;42.05;21.88;;;;;;;4.08;100.00;100570.38;5052204;28;20053;-74
2022/11/19 03:58:08;;;;;;;44.80;22.42;;;;;;;4.08;100.00;100576.63;5051328;28;20061;-73
2022/11/19 04:00:35;;;;;;;43.72;21.52;;;;;;;4.10;100.00;100574.34;5050919;28;20051;-70
2022/11/19 04:03:03;;;;;;;40.22;19.17;;;;;;;4.10;100.00;100574.34;5051887;28;20518;-75
2022/11/19 04:05:29;;;;;;;39.33;19.02;;;;;;;4.03;100.00;100573.38;5051866;28;20103;-72
2022/11/19 04:07:56;;;;;;;46.58;22.05;;;;;;;4.02;100.00;100582.75;5050319;28;20045;-71
2022/11/19 04:10:23;;;;;;;28.45;12.40;;;;;;;3.98;100.00;100590.09;5050304;28;20064;-73
2022/11/19 04:12:49;;;;;;;44.70;24.33;;;;;;;3.94;100.00;100587.28;5053575;28;20635;-72
2022/11/19 04:15:16;;;;;;;41.05;20.30;;;;;;;3.93;100.00;100596.63;5032693;28;20049;-74
2022/11/19 04:17:42;;;;;;;41.40;18.30;;;;;;;3.92;100.00;100607.94;5039281;28;20048;-71
2022/11/19 04:20:09;;;;;;;33.53;15.18;;;;;;;3.92;100.00;100595.03;5051409;28;20041;-75
2022/11/19 04:22:36;;;;;;;43.22;22.50;;;;;;;3.93;100.00;100607.59;5050863;28;20048;-74
2022/11/19 04:25:02;;;;;;;44.63;24.27;;;;;;;3.91;100.00;100603.63;5051708;28;20049;-72
2022/11/19 04:27:29;;;;;;;44.88;23.75;;;;;;;3.95;100.00;100601.75;5054019;28;20041;-73
2022/11/19 04:29:55;;;;;;;41.63;20.77;;;;;;;3.94;100.00;100603.69;5050045;28;20056;-74
2022/11/19 04:32:22;;;;;;;43.92;23.30;;;;;;;3.97;100.00;100596.69;5051124;28;20052;-73
2022/11/19 04:34:48;;;;;;;47.80;24.15;;;;;;;3.97;100.00;100608.47;5050352;28;20059;-73
2022/11/19 04:37:15;;;;;;;43.30;20.67;;;;;;;3.96;100.00;100606.88;5050446;28;20063;-73
2022/11/19 04:39:41;;;;;;;43.17;21.52;;;;;;;3.95;100.00;100608.00;5054734;28;20048;-72
2022/11/19 04:42:08;;;;;;;40.38;20.67;;;;;;;3.97;100.00;100619.41;5050734;28;20061;-72
2022/11/19 04:44:34;;;;;;;44.28;21.30;;;;;;;3.92;100.00;100610.69;5050753;28;20509;-71
2022/11/19 04:47:01;;;;;;;45.03;25.08;;;;;;;3.89;100.00;100616.84;5050992;28;20059;-73
2022/11/19 04:49:27;;;;;;;38.47;18.33;;;;;;;3.89;100.00;100612.19;5049465;28;20049;-72
2022/11/19 04:51:54;;;;;;;43.95;20.45;;;;;;;3.88;100.00;100609.81;5050278;28;20044;-73
2022/11/19 04:54:20;;;;;;;37.78;18.10;;;;;;;3.85;100.00;100616.75;5053252;28;20052;-72
2022/11/19 04:56:47;;;;;;;45.53;25.30;;;;;;;3.79;100.00;100623.66;5050468;28;20049;-72
2022/11/19 04:59:14;;;;;;;43.92;21.20;;;;;;;3.81;100.00;100626.06;5050817;28;20060;-71
2022/11/19 05:01:40;;;;;;;34.88;16.20;;;;;;;3.75;100.00;100632.94;5049806;28;20059;-73
2022/11/19 05:04:08;;;;;;;43.97;21.38;;;;;;;3.74;100.00;100628.63;5050092;28;20052;-74
2022/11/19 05:06:35;;;;;;;35.30;17.52;;;;;;;3.67;100.00;100637.44;5050848;28;20075;-73
2022/11/19 05:09:01;;;;;;;41.03;19.00;;;;;;;3.62;100.00;100634.97;5054406;28;20056;-73
2022/11/19 05:11:28;;;;;;;44.00;21.15;;;;;;;3.61;100.00;100641.56;5049472;28;20059;-72
2022/11/19 05:13:54;;;;;;;48.40;27.02;;;;;;;3.63;100.00;100636.56;5050150;28;20053;-73
2022/11/19 05:16:21;;;;;;;45.20;23.35;;;;;;;3.65;100.00;100642.44;5050347;28;20053;-73
2022/11/19 05:18:47;;;;;;;30.15;14.95;;;;;;;3.60;100.00;100641.94;5048763;28;20053;-73
2022/11/19 05:21:14;;;;;;;41.38;19.70;;;;;;;3.54;100.00;100651.56;5048863;28;20067;-73
2022/11/19 05:23:40;;;;;;;51.67;25.85;;;;;;;3.56;100.00;100658.25;5052544;28;20502;-71
2022/11/19 05:26:06;;;;;;;36.72;16.05;;;;;;;3.53;100.00;100648.03;5049110;28;20064;-74
2022/11/19 05:28:33;;;;;;;47.80;21.95;;;;;;;3.52;100.00;100657.38;5049305;28;20056;-74
2022/11/19 05:31:05;;;;;;;47.38;22.98;;;;;;;3.50;100.00;100659.66;5048080;28;20056;-74
2022/11/19 05:33:31;;;;;;;42.33;19.27;;;;;;;3.46;100.00;100661.50;5050482;28;20053;-74
2022/11/19 05:36:00;;;;;;;46.67;22.85;;;;;;;3.39;100.00;100663.25;5053316;28;20390;-72
2022/11/19 05:38:26;;;;;;;42.47;22.23;;;;;;;3.40;100.00;100671.13;5049960;28;20052;-72
2022/11/19 05:40:53;;;;;;;39.97;17.73;;;;;;;3.43;100.00;100667.69;5050025;28;20057;-72
2022/11/19 05:43:19;;;;;;;50.30;22.45;;;;;;;3.45;100.00;100667.34;5049338;28;20049;-73
2022/11/19 05:45:46;;;;;;;46.72;24.67;;;;;;;3.49;100.00;100668.22;5049834;28;20056;-72
2022/11/19 05:48:12;;;;;;;55.67;26.45;;;;;;;3.48;100.00;100666.63;5047964;28;20464;-73
2022/11/19 05:50:42;;;;;;;52.97;25.15;;;;;;;3.44;100.00;100663.78;5049059;28;20053;-72
2022/11/19 05:53:09;;;;;;;31.23;13.18;;;;;;;3.42;100.00;100671.56;5081794;28;20045;-73
2022/11/19 05:55:35;;;;;;;47.70;24.02;;;;;;;3.45;100.00;100668.13;5049352;28;20053;-73
2022/11/19 05:58:02;;;;;;;41.30;18.00;;;;;;;3.43;100.00;100675.88;5049582;28;20056;-72
2022/11/19 06:00:28;;;;;;;40.13;19.80;;;;;;;3.43;100.00;100673.16;5048668;28;20474;-73
2022/11/19 06:02:55;;;;;;;42.83;21.95;;;;;;;3.45;100.00;100678.28;5049800;28;20048;-73
2022/11/19 06:05:21;;;;;;;47.85;24.77;;;;;;;3.42;100.00;100679.78;5057170;28;20057;-72
2022/11/19 06:07:48;;;;;;;37.90;16.20;;;;;;;3.40;100.00;100671.13;5049749;28;20476;-73
2022/11/19 06:10:14;;;;;;;43.30;20.00;;;;;;;3.44;100.00;100682.16;5047833;28;20048;-74
2022/11/19 06:12:43;;;;;;;46.65;20.90;;;;;;;3.41;100.00;100674.66;5049187;28;20049;-73
2022/11/19 06:15:12;;;;;;;46.45;20.60;;;;;;;3.47;100.00;100693.19;5049225;28;20057;-73
2022/11/19 06:17:38;;;;;;;49.10;22.42;;;;;;;3.42;100.00;100693.44;5048919;28;20072;-72
2022/11/19 06:20:07;;;;;;;42.10;19.88;;;;;;;3.44;100.00;100695.84;5053055;28;20056;-73
2022/11/19 06:22:34;;;;;;;33.97;16.50;;;;;;;3.41;100.00;100700.03;5048353;28;20045;-75
2022/11/19 06:25:01;;;;;;;42.50;18.73;;;;;;;3.44;100.00;100702.09;5048488;28;20056;-73
2022/11/19 06:27:27;;;;;;;44.50;22.27;;;;;;;3.36;100.00;100697.56;5048747;28;20052;-72
2022/11/19 06:29:54;;;;;;;45.30;22.80;;;;;;;3.42;100.00;100707.13;5046758;28;20445;-73
2022/11/19 06:32:22;;;;;;;47.08;23.77;;;;;;;3.39;100.00;100710.56;5040535;28;20144;-73
2022/11/19 06:34:48;;;;;;;44.05;22.05;;;;;;;3.44;100.00;100710.28;5048032;28;20056;-75
2022/11/19 06:37:15;;;;;;;40.45;18.88;;;;;;;3.44;100.00;100714.97;5049213;28;20049;-74
2022/11/19 06:39:41;;;;;;;38.15;18.40;;;;;;;3.42;100.00;100717.25;5052935;28;20048;-74
2022/11/19 06:44:53;;;;;;;46.17;21.40;;;;;;;3.47;100.00;100717.03;5050212;28;20045;-69
2022/11/19 06:47:20;;;;;;;45.30;19.08;;;;;;;3.44;100.00;100718.50;5049074;28;20071;-73
2022/11/19 06:49:46;;;;;;;38.30;16.65;;;;;;;3.46;100.00;100721.69;5047911;28;20056;-73
2022/11/19 06:52:12;;;;;;;44.10;20.85;;;;;;;3.37;100.00;100718.31;5048917;28;20060;-73
2022/11/19 06:54:39;;;;;;;41.55;18.35;;;;;;;3.33;100.00;100733.81;5048269;28;20736;-74
2022/11/19 06:57:09;;;;;;;37.15;16.92;;;;;;;3.33;100.00;100727.56;5047647;28;20060;-73
2022/11/19 06:59:37;;;;;;;36.58;17.40;;;;;;;3.27;100.00;100732.47;5047322;28;20048;-74
2022/11/19 07:02:04;;;;;;;38.80;19.10;;;;;;;3.25;100.00;100740.25;5047071;28;20569;-72
2022/11/19 07:04:31;;;;;;;39.15;18.20;;;;;;;3.20;100.00;100750.63;5050135;28;20105;-73
2022/11/19 07:06:58;;;;;;;30.15;13.00;;;;;;;3.19;100.00;100754.50;5052545;28;20510;-75
2022/11/19 07:09:24;;;;;;;36.88;16.50;;;;;;;3.13;100.00;100753.94;5055360;28;20052;-72
2022/11/19 07:11:51;;;;;;;41.28;20.10;;;;;;;3.16;100.00;100775.13;5052847;28;20663;-74
2022/11/19 07:14:17;;;;;;;26.98;10.77;;;;;;;3.13;100.00;100753.94;5055518;28;20513;-73
2022/11/19 07:16:44;;;;;;;45.28;22.27;;;;;;;3.16;100.00;100764.19;5047771;28;20049;-73
2022/11/19 07:19:10;;;;;;;43.72;20.70;;;;;;;3.17;100.00;100763.03;5048492;28;20064;-75
2022/11/19 07:21:37;;;;;;;42.95;20.92;;;;;;;3.24;100.00;100773.41;5045463;28;20060;-72
2022/11/19 07:24:08;;;;;;;42.63;21.67;;;;;;;3.23;100.00;100761.66;5048574;28;20052;-73
2022/11/19 07:26:35;;;;;;;41.75;21.15;;;;;;;3.25;100.00;100756.66;5048837;28;20482;-74
2022/11/19 07:29:06;;;;;;;38.40;20.10;;;;;;;3.23;100.00;100769.88;5049047;28;20059;-74
2022/11/19 07:31:33;;;;;;;41.47;20.35;;;;;;;3.24;100.00;100778.88;5042327;28;20055;-75
2022/11/19 07:34:00;;;;;;;35.05;16.52;;;;;;;3.19;100.00;100770.91;5047866;28;20084;-71
2022/11/19 07:36:26;;;;;;;44.53;22.75;;;;;;;3.20;100.00;100777.97;5048308;28;20055;-74
2022/11/19 07:38:53;;;;;;;41.00;19.15;;;;;;;3.24;100.00;100784.34;5048188;28;20082;-74
2022/11/19 07:44:04;;;;;;;33.78;16.13;;;;;;;3.23;100.00;100796.41;5047137;28;20060;-72
2022/11/19 07:46:31;;;;;;;33.75;14.13;;;;;;;3.24;100.00;100787.84;5046999;28;20048;-73
2022/11/19 07:48:58;;;;;;;39.85;20.25;;;;;;;3.23;100.00;100789.00;5051003;28;20067;-71
2022/11/19 07:51:25;;;;;;;31.58;14.50;;;;;;;3.21;100.00;100783.09;5067005;28;20489;-74
2022/11/19 07:53:53;;;;;;;36.63;17.98;;;;;;;3.26;100.00;100792.97;5068000;28;20050;-75
2022/11/19 07:56:20;;;;;;;41.08;17.98;;;;;;;3.21;100.00;100798.72;5051421;28;20071;-73
2022/11/19 07:58:46;;;;;;;32.60;16.40;;;;;;;3.19;100.00;100809.97;5045095;28;20053;-72
2022/11/19 08:01:21;;;;;;;29.85;14.27;;;;;;;3.14;100.00;100814.91;5046862;28;20049;-73
2022/11/19 08:03:50;;;;;;;30.70;13.38;;;;;;;3.12;100.00;100815.25;5048118;28;20048;-73
2022/11/19 08:06:24;;;;;;;37.63;16.15;;;;;;;3.06;100.00;100821.28;5047910;28;20060;-74
2022/11/19 08:08:51;;;;;;;33.20;13.80;;;;;;;3.01;100.00;100816.88;5044024;28;20055;-74
2022/11/19 08:11:18;;;;;;;19.27;9.40;;;;;;;2.93;100.00;100820.50;5048649;28;20127;-74
2022/11/19 08:13:44;;;;;;;22.63;8.70;;;;;;;2.95;100.00;100823.69;5047923;28;20045;-73
2022/11/19 08:18:10;;;;;;;36.35;17.73;;;;;;;3.01;100.00;100830.53;5045702;28;20079;-73
2022/11/19 08:19:01;;;;;;;24.90;10.30;;;;;;;2.98;100.00;100828.47;5047526;28;20048;-72
2022/11/19 08:21:28;;;;;;;34.67;17.15;;;;;;;2.99;100.00;100834.72;5046624;28;20049;-74
2022/11/19 08:23:54;;;;;;;30.30;14.68;;;;;;;2.96;100.00;100841.69;5049096;28;20517;-73
2022/11/19 08:26:21;;;;;;;29.13;12.98;;;;;;;2.89;100.00;100848.84;5049991;28;20063;-74
2022/11/19 08:28:48;;;;;;;29.65;14.45;;;;;;;2.91;100.00;100841.94;5049550;28;20099;-74
2022/11/19 08:31:14;;;;;;;29.92;14.38;;;;;;;2.91;100.00;100843.84;5050990;28;20048;-73
2022/11/19 08:33:41;;;;;;;33.38;13.25;;;;;;;2.92;100.00;100843.50;5058194;28;20043;-75
2022/11/19 08:36:07;;;;;;;29.08;12.98;;;;;;;2.87;100.00;100849.19;5055782;28;20107;-74
2022/11/19 08:38:34;;;;;;;18.90;8.98;;;;;;;2.81;100.00;100845.13;5053632;28;20497;-72
2022/11/19 08:43:49;;;;;;;28.13;14.20;;;;;;;2.83;100.00;100851.03;5048407;28;20071;-74
2022/11/19 08:46:16;;;;;;;31.33;14.68;;;;;;;2.84;100.00;100858.09;5055988;28;20055;-75
2022/11/19 08:48:42;;;;;;;26.13;11.73;;;;;;;2.82;100.00;100852.19;5054763;28;21143;-72
2022/11/19 08:51:09;;;;;;;28.63;14.88;;;;;;;2.84;100.00;100860.84;5051602;28;20080;-73
2022/11/19 08:53:36;;;;;;;28.73;13.20;;;;;;;2.86;100.00;100858.53;5054104;28;20048;-71
2022/11/19 08:56:02;;;;;;;25.83;12.40;;;;;;;2.94;100.00;100867.78;5051423;28;20063;-73
2022/11/19 08:58:29;;;;;;;26.17;11.90;;;;;;;3.00;100.00;100869.16;5057626;28;20056;-75
2022/11/19 09:00:55;;;;;;;28.45;13.95;;;;;;;3.01;100.00;100873.47;5056362;28;20063;-69
2022/11/19 09:03:22;;;;;;;30.50;14.65;;;;;;;3.05;100.00;100874.38;5057739;28;20582;-73
2022/11/19 09:05:48;;;;;;;20.83;8.93;;;;;;;3.05;100.00;100877.91;5069608;28;20053;-73
2022/11/19 09:08:15;;;;;;;25.85;13.00;;;;;;;3.04;100.00;100892.72;5058661;28;20136;-72
2022/11/19 09:10:41;;;;;;;24.98;11.20;;;;;;;3.04;100.00;100887.25;5055096;28;20063;-72
2022/11/19 09:13:08;;;;;;;24.90;12.35;;;;;;;3.06;100.00;100886.88;5062914;28;20056;-74
2022/11/19 09:15:34;;;;;;;28.55;13.32;;;;;;;3.06;100.00;100895.09;5056895;28;20834;-72
2022/11/19 09:18:01;;;;;;;25.58;12.38;;;;;;;3.06;100.00;100893.16;5065543;28;20053;-74
2022/11/19 09:20:28;;;;;;;28.30;14.30;;;;;;;3.07;100.00;100886.53;5057052;28;20067;-74
2022/11/19 09:22:55;;;;;;;25.58;11.98;;;;;;;3.09;100.00;100900.69;5056665;28;20053;-73
2022/11/19 09:25:21;;;;;;;28.27;14.20;;;;;;;3.10;100.00;100893.28;5056934;28;20139;-72
2022/11/19 09:27:48;;;;;;;28.88;14.30;;;;;;;3.06;100.00;100890.44;5059210;28;20053;-73
2022/11/19 09:30:14;;;;;;;29.73;14.60;;;;;;;2.97;100.00;100876.06;5048089;28;20061;-74
2022/11/19 09:32:41;;;;;;;27.50;13.73;;;;;;;2.99;100.00;100892.94;5050715;28;20041;-74
2022/11/19 09:35:07;;;;;;;22.98;10.68;;;;;;;3.00;100.00;100896.47;5050630;28;20056;-75
2022/11/19 09:37:35;;;;;;;30.00;14.55;;;;;;;2.95;100.00;100897.50;5045834;28;20044;-74
2022/11/19 09:40:01;;;;;;;26.48;14.20;;;;;;;3.01;100.00;100904.34;5045494;28;20304;-73
2022/11/19 09:42:45;;;;;;;25.02;12.80;;;;;;;2.98;100.00;100907.75;5044774;28;20049;-73
2022/11/19 09:45:32;;;;;;;28.88;14.65;;;;;;;2.98;100.00;100909.69;5051173;28;20053;-73
2022/11/19 09:48:05;;;;;;;25.17;11.40;;;;;;;3.02;100.00;100910.59;5044521;28;20210;-73
2022/11/19 09:50:46;;;;;;;28.88;12.68;;;;;;;3.08;100.00;100910.03;5044842;28;20083;-74
2022/11/19 09:53:21;;;;;;;21.55;9.63;;;;;;;3.07;100.00;100911.16;5051962;28;20460;-74
2022/11/19 09:55:51;;;;;;;26.38;12.93;;;;;;;3.12;100.00;100919.13;5067385;28;20598;-73
2022/11/19 09:58:26;;;;;;;25.63;13.70;;;;;;;3.08;100.00;100925.63;5070273;28;20060;-72
2022/11/19 10:00:52;;;;;;;23.65;12.10;;;;;;;3.07;100.00;100922.09;5051434;28;20072;-74
2022/11/19 10:03:22;;;;;;;26.92;12.25;;;;;;;3.07;100.00;100922.09;5054309;28;20041;-73
2022/11/19 10:06:18;;;;;;;29.88;12.60;;;;;;;3.04;100.00;100921.97;5059802;28;20045;-74
2022/11/19 10:08:56;;;;;;;27.67;13.27;;;;;;;3.11;100.00;100919.47;5041867;28;20052;-73
2022/11/19 10:11:41;;;;;;;27.33;13.20;;;;;;;3.18;100.00;100920.50;5052964;28;20048;-74
2022/11/19 10:14:30;;;;;;;21.98;10.55;;;;;;;3.21;100.00;100924.50;5057306;28;20067;-74
2022/11/19 10:17:12;;;;;;;20.40;9.73;;;;;;;3.33;100.00;100927.19;5059223;28;20052;-73
2022/11/19 10:19:53;;;;;;;22.60;10.00;;;;;;;3.52;100.00;100925.47;5041728;28;20063;-73
2022/11/19 10:22:54;;;;;;;28.27;13.20;;;;;;;3.77;100.00;100924.25;5058534;28;20624;-74
2022/11/19 10:25:28;;;;;;;24.55;11.55;;;;;;;4.02;100.00;100933.97;5054645;28;20146;-74
2022/11/19 10:28:07;;;;;;;24.90;11.15;;;;;;;4.34;100.00;100932.94;5048748;28;20045;-72
2022/11/19 10:30:34;;;;;;;26.90;12.45;;;;;;;4.61;100.00;100928.56;5048872;28;20418;-74
2022/11/19 10:33:04;;;;;;;27.63;13.60;;;;;;;5.11;100.00;100925.91;5047077;28;20045;-74
2022/11/19 10:35:38;;;;;;;29.10;13.25;;;;;;;5.59;100.00;100930.13;5047712;28;20175;-73
2022/11/19 10:38:15;;;;;;;25.55;11.75;;;;;;;6.03;100.00;100915.03;5048592;28;20066;-74
2022/11/19 10:40:47;;;;;;;25.85;10.90;;;;;;;6.82;98.75;100931.47;5044560;28;20049;-72
2022/11/19 10:43:47;;;;;;;20.23;7.57;;;;;;;8.18;88.10;100929.16;5057936;28;20473;-75
2022/11/19 10:46:21;;;;;;;24.35;12.02;;;;;;;10.39;75.65;100925.31;5047390;28;20048;-73
2022/11/19 10:48:57;;;;;;;24.08;11.52;;;;;;;12.40;62.01;100927.50;5046371;28;20512;-72
2022/11/19 10:51:28;;;;;;;20.33;9.68;;;;;;;13.73;49.86;100920.09;5045748;28;20566;-73
2022/11/19 10:53:56;;;;;;;23.75;10.05;;;;;;;14.83;47.64;100920.28;5046825;28;20071;-73
2022/11/19 10:56:37;;;;;;;22.48;10.02;;;;;;;15.75;43.73;100914.75;5053097;28;20056;-73
2022/11/19 10:59:11;;;;;;;20.35;10.40;;;;;;;16.39;41.46;100914.22;5049947;28;20068;-74
2022/11/19 11:01:41;;;;;;;19.85;9.65;;;;;;;17.27;40.34;100912.97;5042084;28;20045;-73
2022/11/19 11:04:16;;;;;;;20.90;9.10;;;;;;;18.05;38.38;100912.47;5033521;28;20881;-73
2022/11/19 11:06:59;;;;;;;20.90;10.20;;;;;;;18.38;36.19;100908.34;5053889;28;20420;-74
2022/11/19 11:09:35;;;;;;;21.17;9.45;;;;;;;18.82;35.53;100910.16;5051347;28;20052;-75
2022/11/19 11:15:14;;;;;;;18.88;10.05;;;;;;;19.34;34.23;100916.06;5051021;28;20062;-76
2022/11/19 11:17:41;;;;;;;22.63;10.93;;;;;;;19.29;33.77;100913.06;5047595;28;20056;-74
2022/11/19 11:20:17;;;;;;;18.33;9.40;;;;;;;19.66;33.15;100912.97;5046783;28;20666;-74
2022/11/19 11:22:47;;;;;;;20.13;10.18;;;;;;;19.74;32.63;100916.28;5048048;28;20052;-76
2022/11/19 11:25:31;;;;;;;19.13;9.70;;;;;;;19.75;31.31;100915.84;5049261;28;20045;-72
2022/11/19 11:28:11;;;;;;;17.52;7.65;;;;;;;19.51;29.75;100917.47;5045783;28;20529;-73
2022/11/19 11:30:58;;;;;;;19.38;10.65;;;;;;;20.04;32.24;100921.22;5043856;28;20060;-70
2022/11/19 11:33:25;;;;;;;18.13;9.63;;;;;;;19.68;33.05;100916.09;5054835;28;20056;-69
2022/11/19 11:35:55;;;;;;;20.88;9.68;;;;;;;19.33;31.15;100900.47;5049546;28;20056;-71
2022/11/19 11:38:24;;;;;;;17.88;9.82;;;;;;;19.04;32.19;100899.81;5048741;28;20161;-71
2022/11/19 11:41:06;;;;;;;18.48;10.35;;;;;;;19.83;30.45;100900.31;5046198;28;20052;-71
2022/11/19 11:44:01;;;;;;;19.23;9.18;;;;;;;19.77;29.72;100906.94;5048270;28;20468;-72
2022/11/19 11:46:50;;;;;;;18.70;10.05;;;;;;;19.73;29.21;100912.72;5048146;28;20057;-72
2022/11/19 11:49:23;;;;;;;17.73;10.13;;;;;;;19.40;29.63;100905.06;5047843;28;20049;-72
2022/11/19 11:52:08;;;;;;;18.52;9.63;;;;;;;19.68;30.31;100906.91;5046965;28;20524;-71